Time;durP1;ratioP1;P1;durP2;ratioP2;P2;SDS_P1;SDS_P2;PMS_P1;PMS_P2;Temp;Humidity;BMP_temperature;BMP_pressure;BME280_temperature;BME280_humidity;BME280_pressure;Samples;Min_cycle;Max_cycle;Signal;HPM_P1;HPM_P2
2023/07/23 00:01:52;;;;;;;7.22;4.50;;;17.10;99.90;;;;;;5032493;28;20040;-89
2023/07/23 00:04:17;;;;;;;13.30;6.72;;;16.80;99.90;;;;;;5034278;28;20036;-89
2023/07/23 00:06:43;;;;;;;9.20;6.40;;;16.20;99.90;;;;;;5015001;28;20405;-89
2023/07/23 00:09:12;;;;;;;13.13;6.60;;;16.30;99.90;;;;;;5012653;28;20036;-89
2023/07/23 00:11:38;;;;;;;8.82;5.80;;;17.00;99.90;;;;;;5017986;28;20102;-89
2023/07/23 00:14:03;;;;;;;6.40;5.68;;;16.60;99.90;;;;;;5028113;28;20037;-89
2023/07/23 00:16:29;;;;;;;11.93;6.15;;;16.60;99.90;;;;;;5013027;28;20037;-89
2023/07/23 00:18:55;;;;;;;12.20;6.28;;;16.40;99.90;;;;;;5021661;28;20041;-88
2023/07/23 00:21:21;;;;;;;11.05;6.95;;;16.20;99.90;;;;;;5012026;28;20087;-88
2023/07/23 00:23:50;;;;;;;6.78;4.53;;;16.20;99.90;;;;;;5018314;28;20405;-89
2023/07/23 00:26:16;;;;;;;11.57;6.68;;;16.20;99.90;;;;;;5035823;28;20101;-89
2023/07/23 00:28:42;;;;;;;13.00;7.35;;;16.20;99.90;;;;;;5021704;28;20072;-88
2023/07/23 00:31:07;;;;;;;8.15;5.82;;;16.70;99.90;;;;;;5036664;28;20064;-89
2023/07/23 00:33:35;;;;;;;9.40;6.75;;;16.50;99.90;;;;;;5001165;28;20044;-88
2023/07/23 00:36:01;;;;;;;9.75;6.22;;;16.30;99.90;;;;;;5018196;28;20056;-89
2023/07/23 00:38:27;;;;;;;10.50;6.80;;;16.00;99.90;;;;;;5020619;28;20401;-89
2023/07/23 00:40:56;;;;;;;9.57;6.50;;;16.30;99.90;;;;;;5035537;28;20136;-89
2023/07/23 00:43:22;;;;;;;9.05;5.25;;;16.50;99.90;;;;;;5033717;28;20036;-89
2023/07/23 00:45:48;;;;;;;11.70;7.53;;;16.10;99.90;;;;;;5033926;28;20037;-88
2023/07/23 00:48:14;;;;;;;8.25;5.78;;;15.50;99.90;;;;;;5035005;28;20063;-89
2023/07/23 00:50:40;;;;;;;9.20;5.82;;;15.50;99.90;;;;;;5017656;28;20044;-90
2023/07/23 00:53:10;;;;;;;7.75;4.70;;;16.10;99.90;;;;;;5032700;28;20313;-90
2023/07/23 00:55:36;;;;;;;11.23;6.20;;;16.10;99.90;;;;;;5035311;28;20040;-91
2023/07/23 00:58:02;;;;;;;8.95;6.43;;;15.50;99.90;;;;;;5035680;28;20040;-88
2023/07/23 01:00:27;;;;;;;10.43;6.70;;;16.20;99.90;;;;;;5021223;28;20381;-90
2023/07/23 01:02:53;;;;;;;9.68;6.90;;;15.50;99.90;;;;;;5035888;28;20452;-92
2023/07/23 01:05:19;;;;;;;8.55;6.78;;;15.40;99.90;;;;;;5037274;28;20037;-91
2023/07/23 01:07:48;;;;;;;4.90;3.15;;;15.60;99.90;;;;;;5024042;28;20439;-92
2023/07/23 01:10:16;;;;;;;7.55;3.85;;;16.70;99.90;;;;;;4999920;28;20079;-91
2023/07/23 01:12:41;;;;;;;4.75;3.40;;;15.70;99.90;;;;;;5017494;28;20073;-88
2023/07/23 01:15:08;;;;;;;9.38;6.50;;;16.10;99.90;;;;;;5032859;28;20072;-89
2023/07/23 01:17:38;;;;;;;12.13;7.70;;;16.80;99.90;;;;;;5034031;28;20040;-88
2023/07/23 01:20:06;;;;;;;11.88;7.15;;;16.50;99.90;;;;;;5034454;28;20268;-88
2023/07/23 01:22:36;;;;;;;8.00;4.53;;;16.20;99.90;;;;;;5017026;28;20122;-89
2023/07/23 01:25:04;;;;;;;8.30;4.97;;;15.70;99.90;;;;;;5032155;28;20048;-88
2023/07/23 01:27:30;;;;;;;9.00;6.15;;;15.80;99.90;;;;;;5016147;28;20052;-88
2023/07/23 01:29:58;;;;;;;10.38;6.95;;;16.60;99.90;;;;;;5031802;28;20041;-88
2023/07/23 01:32:24;;;;;;;8.85;6.25;;;17.00;99.90;;;;;;5018097;28;20045;-90
2023/07/23 01:34:51;;;;;;;7.72;5.13;;;15.90;99.90;;;;;;5015859;28;20037;-90
2023/07/23 01:37:18;;;;;;;10.90;7.28;;;16.30;99.90;;;;;;5016596;28;20044;-87
2023/07/23 01:39:44;;;;;;;8.75;6.35;;;15.90;99.90;;;;;;5013943;28;20130;-89
2023/07/23 01:42:11;;;;;;;8.60;6.93;;;15.80;99.90;;;;;;5033002;28;20029;-90
2023/07/23 01:44:41;;;;;;;10.80;6.95;;;17.00;99.90;;;;;;5033750;28;20056;-89
2023/07/23 01:47:07;;;;;;;11.75;7.32;;;16.30;99.90;;;;;;5014355;28;20123;-88
2023/07/23 01:49:32;;;;;;;8.10;6.53;;;15.80;99.90;;;;;;5018274;28;20124;-89
2023/07/23 01:51:58;;;;;;;9.43;5.45;;;17.10;99.90;;;;;;5035020;28;20041;-89
2023/07/23 01:54:25;;;;;;;9.98;6.75;;;16.40;99.90;;;;;;5018939;28;20037;-90
2023/07/23 01:56:55;;;;;;;6.25;3.65;;;16.20;99.90;;;;;;5020776;28;20045;-88
2023/07/23 01:59:21;;;;;;;7.55;5.45;;;17.10;99.90;;;;;;5037677;28;20559;-89
2023/07/23 02:01:46;;;;;;;9.30;5.75;;;16.00;99.90;;;;;;5036859;28;20045;-89
2023/07/23 02:04:12;;;;;;;10.57;6.25;;;17.20;99.90;;;;;;5032804;28;20041;-90
2023/07/23 02:06:38;;;;;;;8.15;5.82;;;17.20;99.90;;;;;;5021096;28;20041;-90
2023/07/23 02:09:08;;;;;;;10.55;7.18;;;16.00;99.90;;;;;;5035286;28;20037;-89
2023/07/23 02:11:34;;;;;;;8.60;6.28;;;16.30;99.90;;;;;;5017211;28;20049;-88
2023/07/23 02:13:59;;;;;;;11.68;6.93;;;15.80;99.90;;;;;;5017098;28;20055;-90
2023/07/23 02:16:25;;;;;;;9.95;5.80;;;16.20;99.90;;;;;;5000596;28;20037;-90
2023/07/23 02:18:51;;;;;;;9.07;6.00;;;15.90;99.90;;;;;;5037004;28;20041;-90
2023/07/23 02:21:17;;;;;;;13.63;6.60;;;17.40;99.90;;;;;;5016961;28;20044;-91
2023/07/23 02:23:46;;;;;;;9.88;6.43;;;15.30;99.90;;;;;;5030772;28;20061;-90
2023/07/23 02:26:12;;;;;;;9.23;6.43;;;16.10;99.90;;;;;;5035818;28;20045;-90
2023/07/23 02:28:43;;;;;;;8.90;5.78;;;15.50;99.90;;;;;;5041397;28;20044;-91
2023/07/23 02:31:09;;;;;;;9.63;6.47;;;15.40;99.90;;;;;;5023674;28;20044;-89
2023/07/23 02:33:39;;;;;;;9.80;5.82;;;15.80;99.90;;;;;;5036419;28;20037;-91
2023/07/23 02:36:05;;;;;;;10.98;6.65;;;16.00;99.90;;;;;;5036331;28;20436;-90
2023/07/23 02:38:31;;;;;;;12.25;6.15;;;15.60;99.90;;;;;;5031392;28;20051;-89
2023/07/23 02:41:06;;;;;;;10.85;7.22;;;17.20;99.90;;;;;;5019383;28;20419;-90
2023/07/23 02:43:32;;;;;;;9.00;6.47;;;15.40;99.90;;;;;;5036335;28;20041;-90
2023/07/23 02:46:00;;;;;;;9.07;6.30;;;16.30;99.90;;;;;;5016369;28;20041;-89
2023/07/23 02:48:26;;;;;;;10.55;6.53;;;17.40;99.90;;;;;;5017524;28;20052;-89
2023/07/23 02:50:55;;;;;;;11.13;6.93;;;16.10;99.90;;;;;;5016782;28;20045;-91
2023/07/23 02:53:21;;;;;;;7.90;5.93;;;16.70;99.90;;;;;;5035138;28;20084;-91
2023/07/23 02:55:51;;;;;;;9.13;6.00;;;15.90;99.90;;;;;;5029929;28;20769;-91
2023/07/23 02:58:17;;;;;;;6.35;4.90;;;16.20;99.90;;;;;;5032027;28;20068;-90
2023/07/23 03:00:46;;;;;;;8.27;5.97;;;16.20;99.90;;;;;;5036109;28;20079;-90
2023/07/23 03:03:12;;;;;;;6.13;4.85;;;17.50;99.90;;;;;;5020715;28;20040;-90
2023/07/23 03:05:38;;;;;;;9.07;6.10;;;17.40;99.90;;;;;;5036287;28;20041;-89
2023/07/23 03:08:04;;;;;;;8.02;5.22;;;15.10;99.90;;;;;;5021248;28;20041;-91
2023/07/23 03:10:30;;;;;;;6.65;4.93;;;17.40;99.90;;;;;;5041704;28;20049;-90
2023/07/23 03:13:08;;;;;;;8.35;6.05;;;15.50;99.90;;;;;;5035441;28;20041;-91
2023/07/23 03:15:34;;;;;;;9.07;6.38;;;16.90;99.90;;;;;;5034702;28;20507;-90
2023/07/23 03:18:01;;;;;;;8.00;5.88;;;16.60;99.90;;;;;;5016883;28;20041;-93
2023/07/23 03:20:27;;;;;;;10.13;6.50;;;16.00;99.90;;;;;;5020814;28;20120;-91
2023/07/23 03:22:56;;;;;;;9.68;6.95;;;15.90;99.90;;;;;;5034950;28;20535;-90
2023/07/23 03:25:24;;;;;;;8.35;5.88;;;15.80;99.90;;;;;;5035626;28;20041;-91
2023/07/23 03:27:53;;;;;;;5.38;3.50;;;16.20;99.90;;;;;;5017704;28;20064;-90
2023/07/23 03:30:19;;;;;;;9.60;6.57;;;14.80;99.90;;;;;;5036891;28;20041;-89
2023/07/23 03:32:44;;;;;;;9.88;5.75;;;17.80;99.90;;;;;;5032447;28;20041;-91
2023/07/23 03:35:10;;;;;;;11.00;6.60;;;15.10;99.90;;;;;;5016059;28;20037;-90
2023/07/23 03:37:56;;;;;;;7.88;5.45;;;16.90;99.90;;;;;;5036282;28;20045;-91
2023/07/23 03:40:22;;;;;;;7.88;4.93;;;15.60;99.90;;;;;;5036614;28;20060;-90
2023/07/23 03:43:09;;;;;;;9.20;5.30;;;17.80;99.90;;;;;;5033575;28;20042;-89
2023/07/23 03:45:38;;;;;;;9.40;6.68;;;16.60;99.90;;;;;;5007265;28;20459;-92
2023/07/23 03:48:09;;;;;;;12.10;7.82;;;17.20;99.90;;;;;;5045339;28;20103;-91
2023/07/23 03:50:35;;;;;;;11.32;6.20;;;17.00;99.90;;;;;;5026882;28;20359;-89
2023/07/23 03:53:08;;;;;;;10.60;5.90;;;16.50;99.90;;;;;;5034687;28;20128;-91
2023/07/23 03:55:43;;;;;;;12.13;6.20;;;15.30;99.90;;;;;;5033966;28;20041;-91
2023/07/23 03:58:09;;;;;;;8.40;6.28;;;17.80;99.90;;;;;;5045731;28;20068;-89
2023/07/23 04:00:40;;;;;;;10.38;5.95;;;16.40;99.90;;;;;;5043429;28;20028;-92
2023/07/23 04:03:06;;;;;;;9.77;6.93;;;17.70;99.90;;;;;;5032536;28;20038;-92
2023/07/23 04:05:32;;;;;;;8.90;5.88;;;16.70;99.90;;;;;;5022608;28;20120;-90
2023/07/23 04:07:57;;;;;;;11.05;6.28;;;16.30;99.90;;;;;;5035844;28;20052;-90
2023/07/23 04:10:29;;;;;;;11.15;6.75;;;15.70;99.90;;;;;;5036301;28;20045;-92
2023/07/23 04:13:03;;;;;;;8.43;6.70;;;16.60;99.90;;;;;;5036628;28;20433;-92
2023/07/23 04:15:38;;;;;;;11.15;7.43;;;16.40;99.90;;;;;;5035983;28;20037;-89
2023/07/23 04:18:14;;;;;;;7.68;5.03;;;16.60;99.90;;;;;;5035391;28;20037;-92
2023/07/23 04:20:40;;;;;;;9.30;6.00;;;15.50;99.90;;;;;;5042257;28;20045;-92
2023/07/23 04:23:11;;;;;;;10.48;6.90;;;17.60;99.90;;;;;;5035601;28;20045;-92
2023/07/23 04:25:37;;;;;;;10.80;7.20;;;14.90;99.90;;;;;;5050677;28;20091;-93
2023/07/23 04:28:03;;;;;;;10.15;5.95;;;16.60;99.90;;;;;;5019048;28;20500;-91
2023/07/23 04:30:33;;;;;;;9.27;7.05;;;16.70;99.90;;;;;;5027053;28;20095;-92
2023/07/23 04:32:59;;;;;;;14.25;7.38;;;16.70;99.90;;;;;;5027381;28;20036;-92
2023/07/23 04:35:28;;;;;;;10.63;7.22;;;16.70;99.90;;;;;;5018897;28;20123;-92
2023/07/23 04:37:54;;;;;;;7.50;5.18;;;17.30;99.90;;;;;;5035687;28;20037;-90
2023/07/23 04:40:21;;;;;;;6.80;5.22;;;16.30;99.90;;;;;;5035267;28;20039;-91
2023/07/23 04:42:49;;;;;;;10.02;6.88;;;18.20;99.90;;;;;;5039542;28;20079;-91
2023/07/23 04:45:15;;;;;;;12.82;7.93;;;16.40;99.90;;;;;;5039003;28;20037;-90
2023/07/23 04:47:44;;;;;;;7.40;5.70;;;16.40;99.90;;;;;;5036479;28;20125;-93
2023/07/23 04:50:10;;;;;;;8.68;6.90;;;18.00;99.90;;;;;;5024332;28;20063;-93
2023/07/23 04:52:39;;;;;;;8.57;6.82;;;15.50;99.90;;;;;;5037993;28;20048;-90
2023/07/23 04:55:07;;;;;;;11.32;7.32;;;18.30;99.90;;;;;;5035591;28;20071;-92
2023/07/23 04:57:33;;;;;;;7.65;5.85;;;16.40;99.90;;;;;;5039886;28;20033;-91
2023/07/23 04:59:59;;;;;;;9.85;5.75;;;16.90;99.90;;;;;;5038919;28;20040;-91
2023/07/23 05:02:25;;;;;;;9.63;6.25;;;17.00;99.90;;;;;;5039154;28;20121;-91
2023/07/23 05:04:53;;;;;;;11.30;7.20;;;18.00;99.90;;;;;;5039494;28;20033;-91
2023/07/23 05:07:19;;;;;;;12.25;7.13;;;16.60;99.90;;;;;;5039695;28;20040;-91
2023/07/23 05:09:47;;;;;;;10.52;7.75;;;16.40;99.90;;;;;;5039543;28;20044;-94
2023/07/23 05:12:16;;;;;;;12.23;7.65;;;15.20;99.90;;;;;;5021923;28;20493;-93
2023/07/23 05:14:54;;;;;;;8.27;5.88;;;18.30;99.90;;;;;;5038969;28;20045;-90
2023/07/23 05:17:20;;;;;;;12.20;7.07;;;16.40;99.90;;;;;;5031031;28;20068;-93
2023/07/23 05:19:46;;;;;;;9.10;6.45;;;16.50;99.90;;;;;;5022787;28;20068;-91
2023/07/23 05:22:15;;;;;;;8.43;6.40;;;15.00;99.90;;;;;;5038095;28;20048;-91
2023/07/23 05:24:44;;;;;;;9.57;7.38;;;14.60;99.90;;;;;;5039044;28;20144;-93
2023/07/23 05:27:34;;;;;;;7.82;5.13;;;17.30;99.90;;;;;;5040003;28;20067;-90
2023/07/23 05:30:00;;;;;;;11.68;8.60;;;15.40;99.90;;;;;;5038048;28;20041;-92
2023/07/23 05:32:30;;;;;;;12.30;8.57;;;17.80;99.90;;;;;;5023060;28;20481;-91
2023/07/23 05:34:56;;;;;;;10.57;7.30;;;16.60;99.90;;;;;;5034268;28;20584;-92
2023/07/23 05:37:25;;;;;;;8.13;6.15;;;15.70;99.90;;;;;;5038368;28;20147;-91
2023/07/23 05:39:53;;;;;;;13.52;7.72;;;16.50;99.90;;;;;;5038743;28;20478;-90
2023/07/23 05:42:20;;;;;;;10.48;7.97;;;15.10;99.90;;;;;;5038552;28;20068;-89
2023/07/23 05:44:46;;;;;;;13.85;8.88;;;17.90;99.90;;;;;;5023137;28;20045;-92
2023/07/23 05:47:18;;;;;;;12.60;7.88;;;15.60;99.90;;;;;;5037926;28;20045;-93
2023/07/23 05:49:43;;;;;;;9.57;7.68;;;18.20;99.90;;;;;;5021810;28;20049;-92
2023/07/23 05:52:12;;;;;;;13.70;9.18;;;16.80;99.90;;;;;;5037004;28;20132;-91
2023/07/23 05:54:40;;;;;;;9.25;7.28;;;15.80;99.90;;;;;;5038367;28;20056;-94
2023/07/23 05:57:06;;;;;;;13.85;9.15;;;14.90;99.90;;;;;;5035279;28;20045;-92
2023/07/23 05:59:34;;;;;;;11.52;8.45;;;17.10;99.90;;;;;;5038114;28;20047;-92
2023/07/23 06:02:10;;;;;;;9.27;7.10;;;18.10;99.90;;;;;;5038532;28;20037;-91
2023/07/23 06:04:39;;;;;;;12.48;8.38;;;16.40;99.90;;;;;;5037303;28;20472;-91
2023/07/23 06:07:05;;;;;;;14.02;8.15;;;17.90;99.90;;;;;;5054621;28;20041;-91
2023/07/23 06:09:40;;;;;;;13.55;8.95;;;15.70;99.90;;;;;;5026091;28;20037;-93
2023/07/23 06:12:11;;;;;;;9.02;6.45;;;16.20;99.90;;;;;;5025601;28;20124;-91
2023/07/23 06:14:37;;;;;;;11.35;8.82;;;17.70;99.90;;;;;;5035602;28;20053;-92
2023/07/23 06:17:22;;;;;;;9.18;7.55;;;16.30;99.90;;;;;;5035003;28;20056;-93
2023/07/23 06:19:54;;;;;;;12.60;9.13;;;16.10;99.90;;;;;;5037838;28;20041;-92
2023/07/23 06:22:29;;;;;;;11.32;8.18;;;18.70;99.90;;;;;;5035441;28;20144;-91
2023/07/23 06:24:55;;;;;;;13.18;9.43;;;18.70;99.90;;;;;;5021323;28;20049;-89
2023/07/23 06:27:47;;;;;;;10.15;7.18;;;15.70;99.90;;;;;;5038004;28;20318;-95
2023/07/23 06:30:33;;;;;;;15.27;8.75;;;15.70;99.90;;;;;;5032346;28;20047;-91
2023/07/23 06:32:59;;;;;;;8.38;5.20;;;16.60;99.90;;;;;;5030343;28;20041;-92
2023/07/23 06:35:37;;;;;;;13.18;7.20;;;18.60;99.90;;;;;;5037820;28;20055;-91
2023/07/23 06:38:12;;;;;;;9.40;7.07;;;14.10;99.90;;;;;;5020371;28;20049;-93
2023/07/23 06:40:48;;;;;;;14.48;9.85;;;16.10;99.90;;;;;;5037441;28;20040;-94
2023/07/23 06:43:20;;;;;;;10.43;7.13;;;18.70;99.90;;;;;;5044300;28;20032;-91
2023/07/23 06:45:50;;;;;;;12.23;7.97;;;16.90;99.90;;;;;;5021868;28;20045;-90
2023/07/23 06:48:31;;;;;;;8.10;6.25;;;16.30;99.90;;;;;;5033171;28;20048;-92
2023/07/23 06:51:06;;;;;;;15.07;9.30;;;16.80;99.90;;;;;;5023354;28;20460;-92
2023/07/23 06:53:35;;;;;;;11.10;7.55;;;16.30;99.90;;;;;;5022471;28;20064;-90
2023/07/23 06:56:47;;;;;;;7.88;4.90;;;15.40;99.90;;;;;;5037657;28;20162;-91
2023/07/23 07:02:06;;;;;;;10.05;8.10;;;17.10;99.90;;;;;;5035717;28;20458;-91
2023/07/23 07:04:35;;;;;;;9.82;7.82;;;16.20;99.90;;;;;;5036307;28;20037;-91
2023/07/23 07:07:01;;;;;;;12.32;9.02;;;15.60;99.90;;;;;;5033189;28;20053;-92
2023/07/23 07:09:29;;;;;;;13.85;9.20;;;18.90;99.90;;;;;;5019941;28;20045;-91
2023/07/23 07:11:55;;;;;;;13.50;9.20;;;16.90;99.90;;;;;;5038114;28;20043;-91
2023/07/23 07:14:27;;;;;;;13.30;10.07;;;17.90;99.90;;;;;;5039205;28;20519;-91
2023/07/23 07:17:30;;;;;;;12.55;7.88;;;19.30;99.90;;;;;;5037271;28;20045;-91
2023/07/23 07:21:26;;;;;;;;;;;;;;;;;;;;;
2023/07/23 07:25:04;;;;;;;10.88;7.82;;;17.70;99.90;;;;;;4981418;28;20042;-91
2023/07/23 07:27:50;;;;;;;15.10;9.18;;;15.80;99.90;;;;;;4871365;29;20052;-93
2023/07/23 07:30:54;;;;;;;13.10;9.70;;;18.60;99.90;;;;;;4995399;28;20038;-91
2023/07/23 07:33:47;;;;;;;14.85;9.88;;;15.60;99.90;;;;;;4991265;28;20136;-90
2023/07/23 07:37:11;;;;;;;15.45;10.20;;;16.60;99.90;;;;;;5001410;28;20041;-92
2023/07/23 07:39:54;;;;;;;13.57;9.57;;;18.80;99.90;;;;;;5009151;28;20041;-90
2023/07/23 07:42:21;;;;;;;15.20;10.05;;;19.30;99.90;;;;;;4994434;28;20041;-93
2023/07/23 07:45:58;;;;;;;15.13;9.68;;;19.10;99.90;;;;;;4999252;28;20423;-93
2023/07/23 07:49:07;;;;;;;15.80;9.43;;;16.70;99.90;;;;;;4915346;29;20056;-93
2023/07/23 07:56:08;;;;;;;13.20;9.05;;;16.70;99.90;;;;;;4890507;29;20127;-92
2023/07/23 07:59:42;;;;;;;14.48;10.05;;;19.30;99.90;;;;;;4887399;29;20445;-91
2023/07/23 08:01:57;;;;;;;15.07;9.38;;;19.50;99.90;;;;;;4903511;29;20055;-91
2023/07/23 08:04:52;;;;;;;18.08;10.05;;;19.10;99.90;;;;;;4916617;29;20070;-92
2023/07/23 08:10:29;;;;;;;16.13;9.23;;;19.30;99.90;;;;;;4925134;29;20059;-92
2023/07/23 08:13:17;;;;;;;15.60;9.77;;;18.50;99.90;;;;;;4918148;29;20587;-92
2023/07/23 08:15:49;;;;;;;18.60;10.43;;;19.20;99.90;;;;;;4917748;29;20140;-92
2023/07/23 08:18:18;;;;;;;14.57;9.18;;;16.00;99.90;;;;;;4912331;28;20058;-90
2023/07/23 08:20:45;;;;;;;17.10;10.50;;;16.90;99.90;;;;;;4984640;28;20122;-94
2023/07/23 08:23:14;;;;;;;14.93;10.05;;;19.70;99.90;;;;;;4983693;28;20132;-92
2023/07/23 08:25:49;;;;;;;14.88;9.43;;;16.00;99.90;;;;;;5017214;28;20056;-90
2023/07/23 08:28:32;;;;;;;13.00;8.63;;;18.40;99.90;;;;;;5019653;28;20041;-94
2023/07/23 08:31:07;;;;;;;15.60;9.15;;;17.00;99.90;;;;;;5038412;28;20044;-93
2023/07/23 08:33:36;;;;;;;12.05;8.48;;;18.50;99.90;;;;;;5011932;28;20041;-93
2023/07/23 08:36:14;;;;;;;13.27;9.20;;;18.70;99.90;;;;;;5017489;28;20064;-93
2023/07/23 08:38:44;;;;;;;14.95;9.50;;;16.80;99.90;;;;;;5030859;28;20076;-91
2023/07/23 08:41:46;;;;;;;14.93;10.23;;;18.30;99.90;;;;;;5046450;28;20049;-91
2023/07/23 08:44:34;;;;;;;9.75;8.45;;;17.70;99.90;;;;;;5030668;28;20037;-94
2023/07/23 08:47:21;;;;;;;13.07;10.45;;;18.70;99.90;;;;;;5049432;28;20033;-89
2023/07/23 08:49:48;;;;;;;12.63;9.40;;;16.20;99.90;;;;;;5035506;28;20037;-90
2023/07/23 08:52:15;;;;;;;13.98;9.55;;;19.40;99.90;;;;;;5034913;28;20048;-91
2023/07/23 08:54:45;;;;;;;11.77;9.57;;;19.20;99.90;;;;;;5009027;28;20393;-89
2023/07/23 08:57:11;;;;;;;14.00;10.77;;;16.80;99.90;;;;;;5033716;28;20037;-91
2023/07/23 08:59:39;;;;;;;16.08;9.82;;;18.10;99.90;;;;;;5002201;28;20073;-93
2023/07/23 09:02:14;;;;;;;14.30;9.50;;;17.60;99.90;;;;;;5013230;28;20063;-90
2023/07/23 09:04:40;;;;;;;12.68;10.15;;;17.30;99.90;;;;;;5034393;28;20779;-91
2023/07/23 09:07:17;;;;;;;10.88;9.38;;;16.90;99.90;;;;;;5017864;28;20041;-93
2023/07/23 09:09:48;;;;;;;13.00;9.55;;;16.00;99.90;;;;;;5035005;28;20179;-92
2023/07/23 09:12:15;;;;;;;13.45;10.18;;;16.10;99.90;;;;;;5032109;28;20060;-89
2023/07/23 09:14:46;;;;;;;12.68;9.20;;;19.60;99.90;;;;;;5018796;28;20092;-90
2023/07/23 09:17:24;;;;;;;11.00;9.07;;;16.20;99.90;;;;;;5035149;28;20049;-92
2023/07/23 09:19:53;;;;;;;12.60;9.80;;;17.90;99.90;;;;;;5017991;28;20041;-89
2023/07/23 09:22:19;;;;;;;11.70;9.48;;;19.70;99.90;;;;;;5032839;28;20150;-91
2023/07/23 09:24:45;;;;;;;12.57;9.55;;;18.30;99.90;;;;;;5043052;28;20088;-92
2023/07/23 09:27:21;;;;;;;11.10;9.25;;;19.10;99.90;;;;;;5020681;28;20151;-92
2023/07/23 09:29:47;;;;;;;13.55;10.15;;;19.30;99.90;;;;;;5008062;28;20037;-91
2023/07/23 09:32:25;;;;;;;15.18;10.50;;;16.30;99.90;;;;;;5020558;28;20708;-89
2023/07/23 09:34:55;;;;;;;12.80;9.38;;;17.70;99.90;;;;;;5022635;28;20134;-88
2023/07/23 09:37:27;;;;;;;11.07;8.77;;;19.90;99.90;;;;;;5022239;28;20141;-89
2023/07/23 09:39:57;;;;;;;13.68;9.55;;;17.70;99.90;;;;;;5040199;28;20041;-89
2023/07/23 09:42:23;;;;;;;13.07;9.43;;;19.30;99.90;;;;;;5018775;28;20041;-90
2023/07/23 09:44:50;;;;;;;11.60;9.80;;;19.10;99.90;;;;;;5037970;28;20041;-89
2023/07/23 09:47:22;;;;;;;13.18;9.00;;;17.60;99.90;;;;;;5037276;28;20037;-88
2023/07/23 09:49:48;;;;;;;11.20;8.43;;;16.70;99.90;;;;;;5047786;28;20033;-91
2023/07/23 09:52:14;;;;;;;12.43;8.77;;;19.80;99.90;;;;;;5038024;28;20397;-91
2023/07/23 09:54:40;;;;;;;12.30;8.65;;;16.20;99.90;;;;;;5019448;28;20042;-89
2023/07/23 09:57:07;;;;;;;14.15;8.40;;;19.30;99.90;;;;;;5020493;28;20512;-88
2023/07/23 09:59:33;;;;;;;12.77;9.07;;;19.00;99.90;;;;;;5010176;28;20216;-89
2023/07/23 10:02:00;;;;;;;11.35;8.25;;;19.90;99.90;;;;;;5020736;28;20094;-89
2023/07/23 10:04:29;;;;;;;12.52;8.45;;;17.60;99.90;;;;;;5020722;28;20689;-90
2023/07/23 10:06:55;;;;;;;13.25;8.88;;;18.90;99.90;;;;;;5035543;28;20037;-90
2023/07/23 10:09:23;;;;;;;10.02;8.18;;;16.20;99.90;;;;;;5018910;28;20100;-89
2023/07/23 10:11:49;;;;;;;10.30;8.25;;;17.20;99.90;;;;;;5035892;28;20045;-90
2023/07/23 10:14:15;;;;;;;11.23;7.53;;;17.90;99.90;;;;;;5020331;28;20048;-89
2023/07/23 10:16:49;;;;;;;10.30;7.45;;;16.20;99.90;;;;;;5036754;28;20586;-90
2023/07/23 10:19:19;;;;;;;12.27;8.38;;;16.20;99.90;;;;;;5036476;28;20029;-90
2023/07/23 10:21:49;;;;;;;11.70;7.75;;;16.20;99.90;;;;;;5033442;28;20033;-90
2023/07/23 10:24:19;;;;;;;11.85;8.15;;;18.50;99.90;;;;;;5038541;28;20045;-91
2023/07/23 10:26:48;;;;;;;12.00;7.60;;;16.30;99.90;;;;;;5019587;28;20041;-89
2023/07/23 10:29:18;;;;;;;11.43;8.55;;;17.80;99.90;;;;;;5021500;28;20044;-88
2023/07/23 10:31:45;;;;;;;12.88;8.77;;;19.20;99.90;;;;;;5037025;28;20120;-90
2023/07/23 10:34:30;;;;;;;8.32;6.18;;;18.60;99.90;;;;;;5020276;28;20045;-89
2023/07/23 10:37:18;;;;;;;10.98;8.05;;;15.50;99.90;;;;;;5030557;28;20542;-93
2023/07/23 10:39:53;;;;;;;11.48;8.30;;;18.00;99.90;;;;;;5036885;28;20563;-89
2023/07/23 10:42:28;;;;;;;10.98;7.72;;;16.20;99.90;;;;;;5034702;28;20040;-90
2023/07/23 10:45:21;;;;;;;10.38;8.02;;;17.30;99.90;;;;;;5027551;28;20034;-90
2023/07/23 10:47:55;;;;;;;12.00;8.15;;;20.10;99.90;;;;;;5033602;28;20048;-92
2023/07/23 10:50:22;;;;;;;10.75;8.57;;;18.00;99.90;;;;;;5029185;28;20519;-92
2023/07/23 10:52:51;;;;;;;10.70;7.97;;;17.50;99.90;;;;;;5037312;28;20037;-90
2023/07/23 10:55:50;;;;;;;11.15;7.47;;;18.60;99.90;;;;;;5041006;28;20041;-90
2023/07/23 10:58:21;;;;;;;9.90;7.90;;;20.20;99.90;;;;;;5049434;28;20386;-90
2023/07/23 11:01:00;;;;;;;11.25;7.82;;;16.90;99.90;;;;;;5031984;28;20044;-90
2023/07/23 11:03:29;;;;;;;12.77;7.78;;;17.40;99.90;;;;;;5038945;28;20096;-93
2023/07/23 11:05:56;;;;;;;9.45;7.30;;;19.20;99.90;;;;;;5042578;28;20032;-91
2023/07/23 11:08:28;;;;;;;9.40;7.15;;;18.20;99.90;;;;;;5025124;28;20120;-90
2023/07/23 11:10:56;;;;;;;7.90;6.38;;;16.70;99.90;;;;;;5038579;28;20072;-90
2023/07/23 11:13:24;;;;;;;11.27;7.32;;;19.80;99.90;;;;;;5019716;28;20072;-91
2023/07/23 11:15:50;;;;;;;10.50;7.82;;;19.90;99.90;;;;;;5036646;28;20375;-92
2023/07/23 11:18:18;;;;;;;11.98;7.63;;;18.00;99.90;;;;;;5018144;28;20063;-91
2023/07/23 11:20:49;;;;;;;10.60;7.55;;;20.20;99.90;;;;;;5036381;28;20048;-92
2023/07/23 11:23:16;;;;;;;10.05;7.78;;;18.00;99.90;;;;;;5035745;28;20056;-91
2023/07/23 11:25:43;;;;;;;9.02;7.85;;;17.00;99.90;;;;;;5019446;28;20073;-92
2023/07/23 11:28:16;;;;;;;10.82;7.95;;;17.10;99.90;;;;;;5024076;28;20040;-92
2023/07/23 11:30:42;;;;;;;11.55;7.97;;;17.20;99.90;;;;;;5035656;28;20120;-90
2023/07/23 11:33:08;;;;;;;11.57;8.55;;;19.30;99.90;;;;;;5017864;28;20082;-91
2023/07/23 11:35:35;;;;;;;11.65;7.80;;;17.70;99.90;;;;;;5035202;28;21503;-90
2023/07/23 11:38:04;;;;;;;9.55;7.03;;;19.80;99.90;;;;;;5033871;28;20605;-91
2023/07/23 11:40:31;;;;;;;10.23;7.00;;;17.40;99.90;;;;;;5018948;28;20115;-91
2023/07/23 11:43:05;;;;;;;9.15;5.63;;;20.30;99.90;;;;;;5006315;28;20041;-92
2023/07/23 11:45:43;;;;;;;9.63;8.30;;;18.20;99.90;;;;;;5031840;28;20397;-90
2023/07/23 11:48:17;;;;;;;10.82;7.75;;;20.50;99.90;;;;;;5015079;28;20044;-90
2023/07/23 11:50:47;;;;;;;10.30;8.02;;;18.50;99.90;;;;;;5031696;28;20070;-90
2023/07/23 11:53:29;;;;;;;12.18;8.70;;;20.40;99.90;;;;;;5045846;28;20037;-91
2023/07/23 11:56:04;;;;;;;8.57;6.57;;;19.40;99.90;;;;;;5049855;28;20071;-91
2023/07/23 11:58:31;;;;;;;11.00;7.13;;;19.60;99.90;;;;;;5035512;28;20156;-90
2023/07/23 12:00:57;;;;;;;8.20;6.88;;;18.70;99.90;;;;;;5012915;28;20052;-88
2023/07/23 12:03:23;;;;;;;8.90;6.65;;;18.70;99.90;;;;;;5005715;28;20389;-91
2023/07/23 12:05:51;;;;;;;10.75;8.10;;;19.20;99.90;;;;;;5034981;28;20041;-90
2023/07/23 12:08:20;;;;;;;10.27;7.05;;;17.20;99.90;;;;;;5014592;28;20040;-90
2023/07/23 12:10:47;;;;;;;9.07;7.25;;;18.90;99.90;;;;;;5034285;28;20041;-90
2023/07/23 12:13:13;;;;;;;8.63;6.72;;;17.60;99.90;;;;;;5034616;28;20350;-90
2023/07/23 12:15:42;;;;;;;8.73;6.80;;;19.10;99.90;;;;;;5018607;28;20052;-90
2023/07/23 12:18:09;;;;;;;8.35;6.85;;;19.20;99.90;;;;;;5022506;28;20033;-89
2023/07/23 12:20:35;;;;;;;6.13;4.80;;;18.00;99.90;;;;;;5030076;28;20501;-90
2023/07/23 12:23:02;;;;;;;6.55;5.85;;;19.90;99.90;;;;;;5033528;28;20538;-89
2023/07/23 12:25:28;;;;;;;7.20;5.80;;;19.50;99.90;;;;;;5034397;28;20052;-88
2023/07/23 12:27:54;;;;;;;8.35;6.75;;;17.20;99.90;;;;;;5021302;28;20037;-90
2023/07/23 12:30:20;;;;;;;8.90;6.22;;;20.20;99.90;;;;;;5035336;28;20121;-90
2023/07/23 12:32:47;;;;;;;7.50;6.00;;;17.70;99.90;;;;;;5032541;28;20536;-90
2023/07/23 12:35:13;;;;;;;5.72;4.97;;;17.50;99.90;;;;;;5034242;28;20045;-90
2023/07/23 12:37:39;;;;;;;8.70;6.00;;;20.60;99.90;;;;;;5016575;28;20045;-90
2023/07/23 12:40:08;;;;;;;7.78;5.68;;;18.00;99.90;;;;;;5054575;28;20033;-89
2023/07/23 12:42:34;;;;;;;8.35;6.75;;;19.80;99.90;;;;;;4982954;28;20557;-90
2023/07/23 12:45:03;;;;;;;7.60;6.38;;;19.60;99.90;;;;;;5017814;28;20041;-89
2023/07/23 12:47:30;;;;;;;6.55;5.68;;;18.70;99.90;;;;;;5051268;28;20127;-89
2023/07/23 12:50:00;;;;;;;10.38;6.25;;;18.20;99.90;;;;;;5032967;28;20100;-90
2023/07/23 12:52:26;;;;;;;8.15;6.63;;;18.40;99.90;;;;;;5034540;28;20052;-92
2023/07/23 12:54:54;;;;;;;8.15;6.43;;;19.40;99.90;;;;;;5035054;28;20471;-89
2023/07/23 12:57:21;;;;;;;7.13;5.90;;;18.60;99.90;;;;;;5018558;28;20030;-91
2023/07/23 12:59:47;;;;;;;8.25;5.72;;;18.80;99.90;;;;;;5033944;28;20063;-89
2023/07/23 13:02:13;;;;;;;7.10;5.95;;;21.30;99.90;;;;;;5031442;28;20492;-90
2023/07/23 13:04:43;;;;;;;7.90;5.20;;;19.20;99.90;;;;;;5020837;28;20041;-90
2023/07/23 13:07:10;;;;;;;6.68;5.78;;;19.60;99.90;;;;;;5037436;28;20124;-90
2023/07/23 13:09:35;;;;;;;6.00;5.38;;;22.10;99.90;;;;;;5017778;28;20041;-90
2023/07/23 13:12:02;;;;;;;6.43;5.53;;;20.30;99.90;;;;;;5021237;28;20049;-91